»·PEaware :: N117SB KGJT-KSLC

N117SB :: KGJT-KSLC

FLIGHT INFORMATION

Flight Status: Arrived
Operator: Privately registered:
United States
More flights under this callsign
Pilot: Dean S. (16265)
Aircraft: DIAMOND DA-42 TWINSTAR
(DA42)
More flights by this aircraft type
Origin: KGJT Walker
United States
Destination: KSLC Salt Lake City Intl
United States
More flights between these airports :: More routes between these airports
Route: +U77
File this flight plan on PilotEdge
Remarks:
Altitude:
(Current/Filed)
6,500ft
Speed:
(Current/Filed)
150kts
Departed: 17-Oct-17 05:18 PM
Arrived: 17-Oct-17 06:34 PM
Distance/Time
Traveled:
188nm/1:16
Distance/Time
To Go:
Arrived

Flight Plot

Page will automatically refresh every two minutes.

Flight plan parsing failed; only flown route is shown


Map Options




Map Legend


Flown Route
Filed Route
Departure Airport
Arrival Airport
Navaid (VOR, NDB)
Fix

Horizontal Profiles

Position Reports

Time Latitude Longitude Heading Altitude Ground
Speed
17-Oct-17 17:07 39.122881 -108.525903 8 4861ft 0kts
17-Oct-17 17:08 39.122883 -108.525903 8 4861ft 0kts
17-Oct-17 17:09 39.122884 -108.525903 8 4861ft 0kts
17-Oct-17 17:10 39.122886 -108.525902 8 4861ft 0kts
17-Oct-17 17:11 39.122888 -108.525902 8 4861ft 0kts
17-Oct-17 17:12 39.122890 -108.525901 8 4861ft 0kts
17-Oct-17 17:13 39.123341 -108.525429 74 4861ft 10kts
17-Oct-17 17:14 39.121398 -108.521733 125 4861ft 16kts
17-Oct-17 17:15 39.118510 -108.516725 126 4861ft 15kts
17-Oct-17 17:16 39.118221 -108.516207 126 4861ft 0kts
17-Oct-17 17:17 39.118577 -108.516531 308 4861ft 4kts
17-Oct-17 17:18 39.119514 -108.518344 299 4861ft 9kts
17-Oct-17 17:19 39.120743 -108.520580 320 4861ft 7kts
17-Oct-17 17:20 39.121137 -108.520559 39 4861ft 0kts
17-Oct-17 17:21 39.121139 -108.520557 39 4861ft 0kts
17-Oct-17 17:22 39.121140 -108.520556 39 4861ft 0kts
17-Oct-17 17:23 39.122810 -108.522096 306 4861ft 53kts
17-Oct-17 17:24 39.138443 -108.553862 296 5446ft 124kts
17-Oct-17 17:25 39.151465 -108.595433 280 6457ft 136kts
17-Oct-17 17:26 39.163133 -108.643264 291 7356ft 141kts
17-Oct-17 17:27 39.178680 -108.690057 293 8273ft 143kts
17-Oct-17 17:28 39.194750 -108.737178 293 9188ft 144kts
17-Oct-17 17:29 39.211875 -108.787244 293 9522ft 175kts
17-Oct-17 17:30 39.232720 -108.848469 293 8930ft 190kts
17-Oct-17 17:31 39.253448 -108.909648 293 8497ft 178kts
17-Oct-17 17:32 39.272594 -108.966172 293 8490ft 169kts
17-Oct-17 17:33 39.291284 -109.021402 293 8489ft 167kts
17-Oct-17 17:34 39.309972 -109.076708 293 8487ft 167kts
17-Oct-17 17:35 39.328562 -109.131822 293 8485ft 167kts
17-Oct-17 17:36 39.347129 -109.186975 293 8484ft 167kts
17-Oct-17 17:37 39.365731 -109.242340 293 8482ft 167kts
17-Oct-17 17:38 39.384239 -109.297576 293 8481ft 168kts
17-Oct-17 17:39 39.402587 -109.353319 292 8480ft 168kts
17-Oct-17 17:40 39.420681 -109.407872 293 8743ft 155kts
17-Oct-17 17:41 39.437679 -109.458967 293 9441ft 154kts
17-Oct-17 17:42 39.454822 -109.510495 293 10144ft 156kts
17-Oct-17 17:43 39.472616 -109.564047 293 10493ft 172kts
17-Oct-17 17:44 39.492160 -109.622944 292 10492ft 180kts
17-Oct-17 17:45 39.511939 -109.682709 292 10492ft 181kts
17-Oct-17 17:46 39.531715 -109.742609 292 10494ft 181kts
17-Oct-17 17:47 39.551540 -109.802790 292 10492ft 181kts
17-Oct-17 17:48 39.571260 -109.862781 292 10494ft 181kts
17-Oct-17 17:49 39.591014 -109.923003 292 10497ft 181kts
17-Oct-17 17:50 39.610666 -109.983043 292 10500ft 181kts
17-Oct-17 17:51 39.630292 -110.043150 292 10500ft 181kts
17-Oct-17 17:52 39.649690 -110.103644 292 10489ft 182kts
17-Oct-17 17:53 39.669254 -110.164041 292 10478ft 181kts
17-Oct-17 17:54 39.688845 -110.224459 292 10482ft 181kts
17-Oct-17 17:55 39.708330 -110.284641 292 10485ft 181kts
17-Oct-17 17:56 39.727779 -110.344865 293 10487ft 181kts
17-Oct-17 17:57 39.747399 -110.405693 292 10491ft 182kts
17-Oct-17 17:58 39.766878 -110.466244 292 10492ft 181kts
17-Oct-17 17:59 39.786326 -110.526862 292 10494ft 181kts
17-Oct-17 18:00 39.805671 -110.587273 292 10495ft 181kts
17-Oct-17 18:01 39.824978 -110.647726 292 10494ft 181kts
17-Oct-17 18:02 39.844370 -110.708517 292 10495ft 182kts
17-Oct-17 18:03 39.863711 -110.769283 292 10493ft 181kts
17-Oct-17 18:04 39.882677 -110.829910 292 10489ft 181kts
17-Oct-17 18:05 39.901812 -110.890635 292 10485ft 180kts
17-Oct-17 18:06 39.920917 -110.951153 292 10479ft 181kts
17-Oct-17 18:07 39.940065 -111.011905 292 10474ft 180kts
17-Oct-17 18:08 39.959132 -111.072528 292 10468ft 181kts
17-Oct-17 18:09 39.978253 -111.133454 292 10459ft 181kts
17-Oct-17 18:10 39.997268 -111.194185 292 10453ft 181kts
17-Oct-17 18:11 40.016270 -111.255003 291 10443ft 181kts
17-Oct-17 18:12 40.035326 -111.316134 291 10435ft 181kts
17-Oct-17 18:13 40.054285 -111.377092 291 10427ft 181kts
17-Oct-17 18:14 40.073211 -111.438089 291 10421ft 181kts
17-Oct-17 18:15 40.092162 -111.499299 291 10415ft 181kts
17-Oct-17 18:16 40.110982 -111.560220 291 10085ft 177kts
17-Oct-17 18:17 40.128720 -111.617773 291 9279ft 166kts
17-Oct-17 18:18 40.146675 -111.672787 299 8505ft 162kts
17-Oct-17 18:19 40.168682 -111.718406 301 8402ft 139kts
17-Oct-17 18:20 40.189577 -111.761811 301 8405ft 141kts
17-Oct-17 18:21 40.210506 -111.805438 301 8404ft 141kts
17-Oct-17 18:22 40.231688 -111.849653 301 8406ft 144kts
17-Oct-17 18:23 40.253026 -111.894269 301 8407ft 145kts
17-Oct-17 18:24 40.283994 -111.927172 344 8059ft 158kts
17-Oct-17 18:25 40.325487 -111.943189 350 7828ft 151kts
17-Oct-17 18:26 40.367259 -111.950316 353 7338ft 153kts
17-Oct-17 18:27 40.408639 -111.952186 355 6877ft 147kts
17-Oct-17 18:28 40.448688 -111.958717 352 6616ft 133kts
17-Oct-17 18:29 40.482849 -111.964312 354 7232ft 120kts
17-Oct-17 18:30 40.517060 -111.965953 354 7764ft 122kts
17-Oct-17 18:31 40.551262 -111.969088 354 8334ft 128kts
17-Oct-17 18:32 40.593676 -111.971944 0 7757ft 168kts
17-Oct-17 18:33 40.631955 -111.975523 352 7167ft 148kts
17-Oct-17 18:34 40.672619 -111.981301 344 6232ft 141kts
17-Oct-17 18:35 40.710796 -111.987092 352 5423ft 96kts
17-Oct-17 18:36 40.731421 -111.990096 356 4849ft 86kts
17-Oct-17 18:37 40.754391 -111.992811 354 4516ft 87kts
17-Oct-17 18:38 40.780835 -111.995983 355 4230ft 72kts
17-Oct-17 18:39 40.784161 -111.994670 129 4230ft 10kts
17-Oct-17 18:40 40.787099 -111.993260 100 4230ft 12kts
17-Oct-17 18:41 40.786043 -111.989775 151 4230ft 17kts
17-Oct-17 18:42 40.785943 -111.985828 39 4230ft 7kts

Navigation Log

Ident Type
Flight plan parsing failed, navigation log unavailable